createdAt,value
2023-02-23T00:02:07.787Z,6.81
2023-02-23T00:04:35.372Z,6.62
2023-02-23T00:07:02.953Z,6.75
2023-02-23T00:09:35.925Z,6.75
2023-02-23T00:12:08.213Z,6.72
2023-02-23T00:14:38.297Z,6.69
2023-02-23T00:17:14.304Z,6.67
2023-02-23T00:19:43.553Z,6.62
2023-02-23T00:22:11.963Z,6.53
2023-02-23T00:24:40.688Z,6.47
2023-02-23T00:27:07.735Z,6.50
2023-02-23T00:29:40.052Z,6.46
2023-02-23T00:32:07.772Z,6.54
2023-02-23T00:34:35.809Z,6.62
2023-02-23T00:37:03.365Z,6.64
2023-02-23T00:39:30.380Z,6.62
2023-02-23T00:42:02.938Z,6.62
2023-02-23T00:44:31.153Z,6.63
2023-02-23T00:47:00.371Z,6.69
2023-02-23T00:49:27.511Z,6.71
2023-02-23T00:51:54.870Z,6.68
2023-02-23T00:54:22.406Z,6.65
2023-02-23T00:56:50.692Z,6.68
2023-02-23T00:59:18.943Z,6.70
2023-02-23T01:01:46.205Z,6.74
2023-02-23T01:04:14.648Z,6.76
2023-02-23T01:06:42.662Z,6.78
2023-02-23T01:09:11.705Z,6.77
2023-02-23T01:11:41.363Z,6.71
2023-02-23T01:14:10.400Z,6.67
2023-02-23T01:16:39.049Z,6.61
2023-02-23T01:19:07.055Z,6.45
2023-02-23T01:21:38.367Z,6.42
2023-02-23T01:24:07.308Z,6.42
2023-02-23T01:26:36.915Z,6.43
2023-02-23T01:29:08.819Z,6.40
2023-02-23T01:31:38.488Z,6.38
2023-02-23T01:34:06.686Z,6.35
2023-02-23T01:36:38.958Z,6.29
2023-02-23T01:39:08.001Z,6.30
2023-02-23T01:41:36.591Z,6.12
2023-02-23T01:44:06.002Z,6.21
2023-02-23T01:46:38.012Z,6.25
2023-02-23T01:49:07.703Z,6.27
2023-02-23T01:51:40.178Z,6.17
2023-02-23T01:54:14.480Z,6.16
2023-02-23T01:56:45.900Z,6.07
2023-02-23T01:59:16.509Z,6.07
2023-02-23T02:01:45.017Z,6.07
2023-02-23T02:04:16.780Z,5.97
2023-02-23T02:06:48.580Z,5.94
2023-02-23T02:09:18.383Z,5.92
2023-02-23T02:11:54.058Z,5.91
2023-02-23T02:14:24.333Z,5.88
2023-02-23T02:17:20.898Z,5.90
2023-02-23T02:20:32.851Z,5.89
2023-02-23T02:23:48.935Z,5.70
2023-02-23T02:26:21.807Z,5.94
2023-02-23T02:29:21.888Z,5.93
2023-02-23T02:32:29.360Z,5.86
2023-02-23T02:35:33.360Z,5.86
2023-02-23T02:38:26.010Z,5.86
2023-02-23T02:41:05.657Z,5.90
2023-02-23T02:43:42.909Z,5.91
2023-02-23T02:46:14.370Z,5.86
2023-02-23T02:48:48.946Z,5.92
2023-02-23T02:51:24.127Z,6.01
2023-02-23T02:54:06.589Z,6.08
2023-02-23T02:56:40.286Z,6.10
2023-02-23T02:59:29.915Z,6.06
2023-02-23T03:02:16.489Z,5.96
2023-02-23T03:05:02.304Z,5.79
2023-02-23T03:07:53.729Z,5.77
2023-02-23T03:10:48.291Z,5.84
2023-02-23T03:13:44.540Z,5.81
2023-02-23T03:16:38.889Z,5.78
2023-02-23T03:19:33.249Z,5.73
2023-02-23T03:22:28.109Z,5.77
2023-02-23T03:25:18.406Z,5.80
2023-02-23T03:31:32.205Z,5.78
2023-02-23T03:34:27.516Z,5.70
2023-02-23T03:37:21.774Z,5.75
2023-02-23T03:40:14.102Z,5.73
2023-02-23T03:43:01.949Z,5.71
2023-02-23T03:45:50.057Z,5.72
2023-02-23T03:48:38.700Z,5.71
2023-02-23T03:51:27.779Z,5.67
2023-02-23T03:54:20.784Z,5.46
2023-02-23T03:57:10.742Z,5.43
2023-02-23T04:00:02.652Z,5.12
2023-02-23T04:02:54.826Z,5.31
2023-02-23T04:05:42.827Z,5.25
2023-02-23T04:08:32.752Z,5.32
2023-02-23T04:11:27.051Z,5.27
2023-02-23T04:14:00.588Z,5.32
2023-02-23T04:16:30.079Z,5.31
2023-02-23T04:18:58.740Z,5.30
2023-02-23T04:21:26.060Z,5.27
2023-02-23T04:23:52.996Z,5.27
2023-02-23T04:26:20.256Z,5.33
2023-02-23T04:28:47.188Z,5.34
2023-02-23T04:31:14.712Z,5.31
2023-02-23T04:33:41.700Z,5.26
2023-02-23T04:36:10.700Z,5.17
2023-02-23T04:38:37.705Z,5.21
2023-02-23T04:41:05.404Z,5.10
2023-02-23T04:43:32.480Z,5.25
2023-02-23T04:45:59.746Z,5.24
2023-02-23T04:48:27.436Z,5.24
2023-02-23T04:50:54.930Z,5.22
2023-02-23T04:53:23.209Z,5.20
2023-02-23T04:55:50.630Z,5.17
2023-02-23T04:58:17.558Z,5.16
2023-02-23T05:00:53.422Z,5.18
2023-02-23T05:03:28.006Z,5.18
2023-02-23T05:05:55.596Z,5.19
2023-02-23T05:08:23.920Z,5.18
2023-02-23T05:10:51.211Z,5.18
2023-02-23T05:13:18.187Z,5.17
2023-02-23T05:15:45.683Z,5.17
2023-02-23T05:18:12.792Z,5.15
2023-02-23T05:20:44.801Z,5.08
2023-02-23T05:23:13.134Z,5.09
2023-02-23T05:25:41.875Z,5.06
2023-02-23T05:28:08.889Z,5.03
2023-02-23T05:30:36.692Z,5.06
2023-02-23T05:33:03.843Z,5.03
2023-02-23T05:35:31.556Z,5.11
2023-02-23T05:38:02.672Z,5.14
2023-02-23T05:40:36.976Z,5.13
2023-02-23T05:43:05.552Z,5.19
2023-02-23T05:45:34.779Z,5.27
2023-02-23T05:48:01.931Z,5.34
2023-02-23T05:50:29.461Z,5.45
2023-02-23T05:52:56.361Z,5.68
2023-02-23T05:55:23.668Z,6.06
2023-02-23T05:57:50.809Z,6.31
2023-02-23T06:00:20.467Z,6.42
2023-02-23T06:02:47.473Z,6.47
2023-02-23T06:05:15.636Z,6.59
2023-02-23T06:07:42.648Z,6.77
2023-02-23T06:10:11.120Z,6.99
2023-02-23T06:12:37.992Z,7.33
2023-02-23T06:15:06.458Z,7.63
2023-02-23T06:17:35.168Z,7.99
2023-02-23T06:20:06.461Z,8.29
2023-02-23T06:22:33.412Z,8.60
2023-02-23T06:25:05.051Z,8.81
2023-02-23T06:27:32.187Z,8.91
2023-02-23T06:29:59.483Z,9.00
2023-02-23T06:32:27.067Z,8.84
2023-02-23T06:34:55.807Z,8.62
2023-02-23T06:37:23.807Z,8.66
2023-02-23T06:39:51.302Z,8.84
2023-02-23T06:42:18.320Z,8.92
2023-02-23T06:44:45.449Z,8.61
2023-02-23T06:47:12.671Z,8.52
2023-02-23T06:49:40.591Z,8.55
2023-02-23T06:52:09.848Z,8.67
2023-02-23T06:54:39.980Z,8.63
2023-02-23T06:57:06.934Z,8.87
2023-02-23T06:59:34.413Z,9.00
2023-02-23T07:02:01.720Z,8.96
2023-02-23T07:04:29.037Z,8.59
2023-02-23T07:06:55.880Z,8.97
2023-02-23T07:09:24.689Z,9.04
2023-02-23T07:11:51.820Z,8.94
2023-02-23T07:14:26.531Z,8.83
2023-02-23T07:16:54.588Z,8.73
2023-02-23T07:19:23.388Z,8.83
2023-02-23T07:21:50.712Z,8.67
2023-02-23T07:24:18.127Z,8.57
2023-02-23T07:26:47.258Z,8.59
2023-02-23T07:29:15.728Z,8.67
2023-02-23T07:31:42.735Z,8.65
2023-02-23T07:34:10.613Z,8.58
2023-02-23T07:36:38.079Z,8.67
2023-02-23T07:39:05.446Z,8.85
2023-02-23T07:41:32.571Z,8.86
2023-02-23T07:44:04.565Z,8.72
2023-02-23T07:46:31.500Z,8.67
2023-02-23T07:48:59.021Z,8.83
2023-02-23T07:51:25.988Z,9.05
2023-02-23T07:53:54.370Z,9.19
2023-02-23T07:56:21.536Z,9.12
2023-02-23T07:58:48.992Z,9.32
2023-02-23T08:01:19.957Z,9.34
2023-02-23T08:03:50.394Z,9.39
2023-02-23T08:06:18.252Z,9.52
2023-02-23T08:08:45.740Z,9.78
2023-02-23T08:11:12.829Z,9.91
2023-02-23T08:13:42.632Z,10.18
2023-02-23T08:16:09.759Z,10.25
2023-02-23T08:18:38.547Z,10.06
2023-02-23T08:21:10.974Z,9.98
2023-02-23T08:23:38.232Z,10.02
2023-02-23T08:26:05.495Z,10.16
2023-02-23T08:28:32.906Z,10.24
2023-02-23T08:31:00.081Z,10.38
2023-02-23T08:33:27.606Z,10.47
2023-02-23T08:35:59.495Z,10.63
2023-02-23T08:38:27.090Z,10.67
2023-02-23T08:40:55.016Z,10.86
2023-02-23T08:43:22.553Z,11.01
2023-02-23T08:45:49.564Z,11.02
2023-02-23T08:48:17.115Z,11.06
2023-02-23T08:50:44.144Z,11.11
2023-02-23T08:53:12.916Z,11.19
2023-02-23T08:55:39.853Z,11.41
2023-02-23T08:58:08.675Z,11.38
2023-02-23T09:00:35.690Z,11.42
2023-02-23T09:03:05.291Z,11.50
2023-02-23T09:05:32.818Z,11.53
2023-02-23T09:08:00.178Z,11.95
2023-02-23T09:10:29.154Z,12.03
2023-02-23T09:12:56.425Z,12.10
2023-02-23T09:15:23.418Z,12.59
2023-02-23T09:17:50.965Z,12.61
2023-02-23T09:20:18.496Z,12.78
2023-02-23T09:22:49.685Z,12.82
2023-02-23T09:25:19.141Z,13.05
2023-02-23T09:27:48.488Z,13.13
2023-02-23T09:30:17.896Z,13.50
2023-02-23T09:32:45.730Z,13.63
2023-02-23T09:35:12.911Z,13.54
2023-02-23T09:37:40.080Z,13.59
2023-02-23T09:40:10.028Z,13.53
2023-02-23T09:42:45.577Z,13.70
2023-02-23T09:45:23.613Z,13.94
2023-02-23T09:48:05.293Z,14.09
2023-02-23T09:50:35.408Z,14.22
2023-02-23T09:53:07.807Z,14.25
2023-02-23T09:55:35.425Z,14.16
2023-02-23T09:58:08.112Z,14.08
2023-02-23T10:00:39.657Z,14.36
2023-02-23T10:03:16.995Z,14.37
2023-02-23T10:05:48.352Z,14.45
2023-02-23T10:08:25.346Z,14.36
2023-02-23T10:11:02.550Z,14.53
2023-02-23T10:13:39.995Z,14.42
2023-02-23T10:16:22.859Z,14.58
2023-02-23T10:19:00.268Z,14.64
2023-02-23T10:21:33.730Z,14.92
2023-02-23T10:24:05.384Z,15.07
2023-02-23T10:26:39.446Z,15.25
2023-02-23T10:29:20.863Z,15.32
2023-02-23T10:31:52.197Z,15.30
2023-02-23T10:34:20.425Z,15.31
2023-02-23T10:36:55.997Z,15.32
2023-02-23T10:39:24.332Z,15.56
2023-02-23T10:41:52.353Z,15.68
2023-02-23T10:44:25.324Z,15.64
2023-02-23T10:47:00.530Z,15.55
2023-02-23T10:49:35.077Z,15.23
2023-02-23T10:52:03.028Z,15.05
2023-02-23T10:54:38.636Z,14.98
2023-02-23T10:57:08.779Z,15.30
2023-02-23T10:59:36.471Z,15.59
2023-02-23T11:02:23.629Z,15.55
2023-02-23T11:04:53.478Z,15.54
2023-02-23T11:07:22.181Z,15.48
2023-02-23T11:09:51.595Z,15.38
2023-02-23T11:12:25.563Z,15.59
2023-02-23T11:14:54.656Z,15.76
2023-02-23T11:17:29.300Z,15.71
2023-02-23T11:20:02.735Z,15.66
2023-02-23T11:22:37.254Z,15.75
2023-02-23T11:25:16.762Z,15.81
2023-02-23T11:27:51.317Z,15.89
2023-02-23T11:30:21.869Z,16.08
2023-02-23T11:32:54.687Z,16.22
2023-02-23T11:35:30.686Z,16.50
2023-02-23T11:37:57.923Z,16.51
2023-02-23T11:40:28.199Z,16.38
2023-02-23T11:42:57.129Z,16.22
2023-02-23T11:46:44.572Z,16.07
2023-02-23T11:49:26.189Z,15.76
2023-02-23T11:51:54.853Z,15.82
2023-02-23T11:54:27.385Z,15.94
2023-02-23T11:56:57.037Z,16.07
2023-02-23T11:59:30.211Z,16.20
2023-02-23T12:02:05.366Z,16.22
2023-02-23T12:04:37.442Z,16.31
2023-02-23T12:07:25.964Z,16.03
2023-02-23T12:10:01.007Z,15.94
2023-02-23T12:12:30.913Z,15.96
2023-02-23T12:15:09.501Z,16.04
2023-02-23T12:17:42.783Z,16.07
2023-02-23T12:20:17.842Z,16.11
2023-02-23T12:22:49.497Z,16.35
2023-02-23T12:25:23.753Z,16.41
2023-02-23T12:27:59.049Z,16.21
2023-02-23T12:30:39.510Z,16.05
2023-02-23T12:33:14.846Z,16.18
2023-02-23T12:35:49.647Z,16.27
2023-02-23T12:38:27.883Z,16.30
2023-02-23T12:41:03.544Z,16.30
2023-02-23T12:43:38.736Z,16.35
2023-02-23T12:46:33.651Z,16.22
2023-02-23T12:49:06.640Z,16.21
2023-02-23T12:51:39.738Z,16.08
2023-02-23T12:54:10.670Z,16.05
2023-02-23T12:56:50.366Z,16.16
2023-02-23T12:59:43.357Z,15.98
2023-02-23T13:02:17.052Z,16.07
2023-02-23T13:04:57.353Z,16.21
2023-02-23T13:07:36.218Z,16.29
2023-02-23T13:10:20.141Z,16.18
2023-02-23T13:12:56.150Z,16.24
2023-02-23T13:15:32.336Z,16.12
2023-02-23T13:18:09.153Z,15.96
2023-02-23T13:20:41.186Z,16.03
2023-02-23T13:23:22.515Z,16.11
2023-02-23T13:25:58.023Z,16.05
2023-02-23T13:28:38.620Z,15.91
2023-02-23T13:31:25.284Z,15.97
2023-02-23T13:33:54.388Z,15.93
2023-02-23T13:36:22.606Z,15.93
2023-02-23T13:39:18.983Z,15.76
2023-02-23T13:41:56.949Z,15.65
2023-02-23T13:44:32.887Z,15.72
2023-02-23T13:47:06.462Z,15.76
2023-02-23T13:49:40.068Z,15.57
2023-02-23T13:52:29.176Z,15.61
2023-02-23T13:55:03.514Z,15.66
2023-02-23T13:57:32.675Z,15.80
2023-02-23T14:00:01.008Z,15.88
2023-02-23T14:02:36.474Z,15.75
2023-02-23T14:05:12.055Z,15.56
2023-02-23T14:07:42.587Z,15.50
2023-02-23T14:10:18.145Z,15.61
2023-02-23T14:13:05.225Z,15.49
2023-02-23T14:15:44.959Z,15.42
2023-02-23T14:18:31.051Z,15.34
2023-02-23T14:21:05.368Z,15.69
2023-02-23T14:23:48.647Z,15.62
2023-02-23T14:26:33.608Z,15.60
2023-02-23T14:29:22.400Z,15.66
2023-02-23T14:32:02.953Z,15.72
2023-02-23T14:34:51.215Z,15.64
2023-02-23T14:37:25.153Z,15.61
2023-02-23T14:39:54.834Z,15.57
2023-02-23T14:42:26.181Z,15.58
2023-02-23T14:44:54.373Z,15.60
2023-02-23T14:47:23.527Z,15.70
2023-02-23T14:49:55.971Z,15.67
2023-02-23T14:52:25.762Z,15.75
2023-02-23T14:55:07.032Z,15.62
2023-02-23T14:57:37.513Z,15.58
2023-02-23T15:00:23.074Z,15.49
2023-02-23T15:02:56.428Z,15.40
2023-02-23T15:05:25.936Z,15.32
2023-02-23T15:07:54.581Z,15.38
2023-02-23T15:10:24.487Z,15.34
2023-02-23T15:12:53.885Z,15.28
2023-02-23T15:15:23.848Z,15.12
2023-02-23T15:17:54.531Z,15.04
2023-02-23T15:20:32.442Z,14.93
2023-02-23T15:23:01.837Z,14.81
2023-02-23T15:25:36.192Z,14.62
2023-02-23T15:28:21.659Z,14.45
2023-02-23T15:30:50.685Z,14.32
2023-02-23T15:33:23.320Z,14.18
2023-02-23T15:35:54.891Z,14.05
2023-02-23T15:38:42.483Z,13.91
2023-02-23T15:41:15.702Z,13.82
2023-02-23T15:43:44.218Z,13.74
2023-02-23T15:46:24.263Z,13.58
2023-02-23T15:48:54.062Z,13.61
2023-02-23T15:51:29.063Z,13.59
2023-02-23T15:53:56.088Z,13.57
2023-02-23T15:56:27.087Z,13.48
2023-02-23T15:58:57.589Z,13.43
2023-02-23T16:01:27.751Z,13.36
2023-02-23T16:04:08.108Z,13.26
2023-02-23T16:06:38.532Z,13.22
2023-02-23T16:09:21.181Z,13.17
2023-02-23T16:11:51.259Z,13.10
2023-02-23T16:14:21.051Z,13.04
2023-02-23T16:17:08.432Z,12.99
2023-02-23T16:19:41.223Z,12.59
2023-02-23T16:22:19.158Z,12.80
2023-02-23T16:24:52.773Z,12.63
2023-02-23T16:27:20.153Z,12.59
2023-02-23T16:29:57.275Z,12.48
2023-02-23T16:32:25.304Z,12.39
2023-02-23T16:34:57.935Z,12.27
2023-02-23T16:37:27.913Z,12.14
2023-02-23T16:40:00.157Z,12.15
2023-02-23T16:42:30.666Z,12.02
2023-02-23T16:44:59.863Z,12.08
2023-02-23T16:47:41.689Z,12.03
2023-02-23T16:50:21.104Z,12.00
2023-02-23T16:52:53.370Z,11.90
2023-02-23T16:55:25.752Z,11.87
2023-02-23T16:57:55.441Z,11.85
2023-02-23T17:00:25.965Z,11.80
2023-02-23T17:02:53.268Z,11.77
2023-02-23T17:05:23.984Z,11.71
2023-02-23T17:07:52.019Z,11.76
2023-02-23T17:10:25.047Z,11.75
2023-02-23T17:12:54.639Z,11.75
2023-02-23T17:15:24.960Z,11.75
2023-02-23T17:17:53.344Z,11.72
2023-02-23T17:20:21.281Z,11.69
2023-02-23T17:22:49.723Z,11.65
2023-02-23T17:25:17.300Z,11.54
2023-02-23T17:27:44.589Z,11.60
2023-02-23T17:30:13.101Z,11.50
2023-02-23T17:32:41.939Z,11.54
2023-02-23T17:35:09.820Z,11.55
2023-02-23T17:37:38.027Z,11.37
2023-02-23T17:40:12.961Z,11.49
2023-02-23T17:42:43.306Z,11.47
2023-02-23T17:45:10.859Z,11.46
2023-02-23T17:47:42.667Z,11.44
2023-02-23T17:50:11.966Z,11.42
2023-02-23T17:52:41.588Z,11.38
2023-02-23T17:55:14.015Z,11.39
2023-02-23T17:57:41.997Z,11.38
2023-02-23T18:00:15.026Z,11.37
2023-02-23T18:02:44.281Z,11.24
2023-02-23T18:05:13.613Z,11.31
2023-02-23T18:07:48.359Z,11.28
2023-02-23T18:10:16.968Z,11.25
2023-02-23T18:12:44.871Z,11.14
2023-02-23T18:15:12.169Z,11.26
2023-02-23T18:17:39.613Z,11.19
2023-02-23T18:20:16.228Z,11.07
2023-02-23T18:22:44.292Z,11.19
2023-02-23T18:25:20.776Z,11.06
2023-02-23T18:27:51.174Z,11.16
2023-02-23T18:30:18.788Z,11.16
2023-02-23T18:32:52.680Z,11.17
2023-02-23T18:35:24.146Z,11.06
2023-02-23T18:37:51.580Z,11.19
2023-02-23T18:40:21.219Z,11.24
2023-02-23T18:42:48.718Z,11.23
2023-02-23T18:45:20.142Z,11.20
2023-02-23T18:47:47.520Z,11.23
2023-02-23T18:50:18.964Z,11.21
2023-02-23T18:52:50.781Z,11.17
2023-02-23T18:55:19.557Z,11.02
2023-02-23T18:57:46.852Z,11.10
2023-02-23T19:00:16.222Z,11.05
2023-02-23T19:02:46.427Z,10.95
2023-02-23T19:05:15.684Z,10.72
2023-02-23T19:07:43.792Z,10.83
2023-02-23T19:10:14.947Z,10.70
2023-02-23T19:12:42.664Z,10.58
2023-02-23T19:15:10.501Z,10.63
2023-02-23T19:17:37.786Z,10.65
2023-02-23T19:20:13.527Z,10.56
2023-02-23T19:22:41.766Z,10.59
2023-02-23T19:25:14.763Z,10.54
2023-02-23T19:27:44.168Z,10.48
2023-02-23T19:30:13.709Z,10.42
2023-02-23T19:32:41.694Z,10.34
2023-02-23T19:35:10.799Z,10.07
2023-02-23T19:37:40.039Z,10.11
2023-02-23T19:40:10.021Z,10.06
2023-02-23T19:42:43.019Z,10.05
2023-02-23T19:45:11.653Z,9.95
2023-02-23T19:47:38.849Z,9.96
2023-02-23T19:50:06.465Z,9.82
2023-02-23T19:52:34.952Z,9.71
2023-02-23T19:55:02.336Z,9.50
2023-02-23T19:57:29.675Z,9.78
2023-02-23T19:59:56.872Z,9.75
2023-02-23T20:02:25.765Z,9.74
2023-02-23T20:04:52.967Z,9.63
2023-02-23T20:07:20.143Z,9.83
2023-02-23T20:09:47.197Z,9.78
2023-02-23T20:12:14.970Z,9.81
2023-02-23T20:14:41.927Z,9.78
2023-02-23T20:17:09.315Z,9.69
2023-02-23T20:19:38.258Z,9.71
2023-02-23T20:22:05.837Z,9.64
2023-02-23T20:24:33.250Z,9.64
2023-02-23T20:27:06.803Z,9.64
2023-02-23T20:29:34.265Z,9.64
2023-02-23T20:32:03.011Z,9.63
2023-02-23T20:34:31.865Z,9.64
2023-02-23T20:37:00.684Z,9.64
2023-02-23T20:39:28.069Z,9.63
2023-02-23T20:41:55.673Z,9.64
2023-02-23T20:44:24.416Z,9.64
2023-02-23T20:46:51.510Z,9.65
2023-02-23T20:49:19.170Z,9.64
2023-02-23T20:51:48.305Z,9.51
2023-02-23T20:54:20.726Z,9.56
2023-02-23T20:56:58.729Z,9.57
2023-02-23T20:59:30.017Z,9.57
2023-02-23T21:01:57.463Z,9.57
2023-02-23T21:04:24.544Z,9.62
2023-02-23T21:06:52.279Z,9.61
2023-02-23T21:09:27.724Z,9.35
2023-02-23T21:11:55.434Z,9.60
2023-02-23T21:14:24.636Z,9.62
2023-02-23T21:16:51.902Z,9.60
2023-02-23T21:19:21.629Z,9.57
2023-02-23T21:22:01.653Z,9.52
2023-02-23T21:24:34.693Z,9.42
2023-02-23T21:27:05.337Z,9.21
2023-02-23T21:29:32.653Z,9.30
2023-02-23T21:32:43.595Z,9.32
2023-02-23T21:35:17.969Z,8.13
2023-02-23T21:38:12.933Z,9.37
2023-02-23T21:40:51.793Z,9.30
2023-02-23T21:43:19.158Z,9.25
2023-02-23T21:45:46.710Z,9.27
2023-02-23T21:48:14.398Z,9.31
2023-02-23T21:50:42.952Z,9.32
2023-02-23T21:53:12.278Z,9.35
2023-02-23T21:55:41.687Z,9.36
2023-02-23T21:58:12.259Z,9.40
2023-02-23T22:00:39.754Z,9.46
2023-02-23T22:03:08.188Z,9.40
2023-02-23T22:05:35.611Z,9.57
2023-02-23T22:08:02.586Z,9.59
2023-02-23T22:10:31.650Z,9.59
2023-02-23T22:13:00.130Z,9.63
2023-02-23T22:15:28.768Z,9.62
2023-02-23T22:17:56.269Z,9.59
2023-02-23T22:20:23.698Z,9.59
2023-02-23T22:22:50.691Z,9.62
2023-02-23T22:25:19.838Z,9.62
2023-02-23T22:27:47.121Z,9.35
2023-02-23T22:30:15.013Z,9.59
2023-02-23T22:32:43.598Z,9.56
2023-02-23T22:35:10.985Z,9.56
2023-02-23T22:37:39.147Z,9.56
2023-02-23T22:40:12.340Z,9.51
2023-02-23T22:42:39.446Z,9.42
2023-02-23T22:45:08.904Z,9.24
2023-02-23T22:47:35.860Z,9.31
2023-02-23T22:50:06.846Z,9.35
2023-02-23T22:52:34.704Z,9.27
2023-02-23T22:55:04.006Z,9.33
2023-02-23T22:57:30.947Z,9.38
2023-02-23T23:00:07.447Z,9.31
2023-02-23T23:02:36.439Z,9.26
2023-02-23T23:05:06.794Z,9.23
2023-02-23T23:07:34.075Z,9.21
2023-02-23T23:10:05.824Z,9.19
2023-02-23T23:12:34.567Z,9.37
2023-02-23T23:15:02.057Z,9.27
2023-02-23T23:17:29.945Z,9.24
2023-02-23T23:20:00.203Z,9.09
2023-02-23T23:22:29.276Z,9.14
2023-02-23T23:24:58.229Z,9.15
2023-02-23T23:27:25.396Z,9.09
2023-02-23T23:29:58.520Z,9.09
2023-02-23T23:32:27.793Z,9.04
2023-02-23T23:34:58.481Z,9.02
2023-02-23T23:37:29.305Z,8.77
2023-02-23T23:40:02.113Z,8.89
2023-02-23T23:42:29.055Z,8.80
2023-02-23T23:44:57.045Z,8.54
2023-02-23T23:47:24.058Z,8.57
2023-02-23T23:49:53.630Z,8.46
2023-02-23T23:52:21.085Z,8.31
2023-02-23T23:54:48.434Z,8.15
2023-02-23T23:57:17.420Z,8.08
2023-02-23T23:59:46.129Z,8.11
